フィレンツェ・ペレトラ空港の過去48時間の天気

フィレンツェ・ペレトラ空港 (Firenze / Peretola)

現在時刻: 1/20 04:40 CET (1/20 03:40 UTC) 以下の時間は現地時間です。

過去48時間のMETAR気象情報
時間 風向 風速(m/s) 視程 気温(℃) 湿度(%) 気圧(hPa) 天気現象
20 04:20 西南西 1 10km以上 4 87 1013
20 03:50 不定 1 10km以上 5 81 1013
20 03:20 不定 1 10km以上 5 81 1013
20 02:50 不定 1 10km以上 5 81 1013
20 02:20 東北東 2 10km以上 4 87 1013
20 01:50 不定 1 10km以上 4 87 1013
20 01:20 北北東 1 10km以上 5 81 1013
20 00:50 不定 1 10km以上 5 75 1013
20 00:20 2 10km以上 5 75 1014
19 23:50 東北東 1 10km以上 4 87 1014
19 23:20 不定 1 10km以上 5 81 1014
19 22:50 不定 1 10km以上 5 75 1014
19 22:20 1 10km以上 5 75 1014
19 21:50 不定 1 10km以上 5 75 1014
19 21:20 不定 1 10km以上 6 70 1014
19 20:50 南南西 2 10km以上 6 70 1013
19 20:20 2 10km以上 6 70 1013
19 19:50 不定 1 10km以上 7 66 1013
19 19:20 - - 10km以上 7 66 1013
19 18:50 不定 1 10km以上 7 66 1013
19 18:20 西 2 10km以上 7 66 1013
19 17:50 3 10km以上 8 61 1013
19 17:20 北北東 4 10km以上 8 61 1013
19 16:50 2 10km以上 8 61 1013
19 16:20 西北西 2 10km以上 8 61 1013
19 15:50 不定 2 10km以上 9 62 1013
19 15:20 北北東 5 10km以上 9 62 1013
19 14:50 北北東 4 10km以上 10 58 1013
19 14:20 北北東 3 10km以上 11 54 1013
19 13:50 北東 3 10km以上 10 58 1013
19 13:20 不定 2 10km以上 11 50 1013
19 12:50 北北東 3 10km以上 10 58 1014
19 12:20 北北東 3 10km以上 10 58 1014
19 11:50 北北東 5 10km以上 10 54 1014
19 11:20 東北東 4 10km以上 10 58 1015
19 10:50 2 10km以上 9 62 1015
19 10:20 2 10km以上 8 71 1015
19 09:50 2 10km以上 7 76 1014
19 09:20 南南西 2 10km以上 6 81 1014
19 08:50 南南西 2 10km以上 6 81 1014
19 08:20 不定 2 10km以上 5 87 1014
19 07:50 南南西 4 10km以上 5 87 1014
19 07:20 南南西 2 10km以上 5 87 1013
19 06:50 不定 1 10km以上 5 87 1013
19 06:20 南南東 2 10km以上 5 87 1013
19 05:50 3 10km以上 5 87 1013
19 05:20 不定 2 10km以上 6 87 1013
19 04:50 南西 2 10km以上 6 87 1013
19 04:20 南南西 2 10km以上 6 87 1013
19 03:50 2 10km以上 6 87 1014
19 03:20 不定 1 10km以上 6 87 1014
19 02:50 南東 2 10km以上 7 81 1014
19 02:20 南西 2 10km以上 7 81 1014
19 01:50 南南西 1 10km以上 6 87 1014
19 01:20 不定 1 10km以上 5 87 1014
19 00:50 不定 1 10km以上 6 87 1014
19 00:20 南東 2 10km以上 5 81 1014
18 23:50 南南西 2 10km以上 6 87 1014
18 23:20 不定 1 10km以上 7 81 1014
18 22:50 不定 1 10km以上 7 81 1013
18 22:20 南南西 2 10km以上 7 81 1013
18 21:50 不定 1 10km以上 7 81 1013
18 21:20 3 10km以上 7 81 1013
18 20:50 西南西 2 10km以上 8 76 1013
18 20:20 3 10km以上 8 76 1013
18 19:50 南南西 2 10km以上 8 76 1013
18 19:20 2 10km以上 7 81 1012
18 18:50 不定 1 10km以上 7 76 1012
18 18:20 不定 1 10km以上 9 66 1012
18 17:50 北北東 3 10km以上 10 62 1011
18 17:20 北北東 2 10km以上 9 71 1011
18 16:50 不定 1 10km以上 11 58 1011
18 16:20 南南東 2 10km以上 12 58 1011
18 15:50 不定 1 10km以上 14 47 1011
18 15:20 東北東 2 10km以上 13 51 1011
18 14:50 東南東 2 10km以上 13 54 1010
18 14:20 不定 1 10km以上 13 51 1010
18 13:50 不定 1 10km以上 13 51 1010
18 13:20 北北東 2 10km以上 13 54 1010
18 12:50 北北西 2 10km以上 12 58 1011
18 12:20 不定 1 10km以上 13 58 1011
18 11:50 不定 1 10km以上 13 62 1011
18 11:20 2 10km以上 12 71 1011
18 10:50 東南東 2 10km以上 11 76 1011
18 10:20 東南東 3 10km以上 10 82 1011
18 09:50 不定 1 10km以上 10 87 1011
18 09:20 不定 1 10km以上 8 93 1011
18 08:50 2 10km以上 8 93 1010
18 08:20 2 10km以上 7 100 1010
18 07:50 不定 1 10km以上 7 100 1010
18 07:20 東北東 2 10km以上 8 93 1009
18 06:50 2 9000m 8 100 1009
18 06:20 不定 1 10km以上 8 93 1009
18 05:50 不定 1 10km以上 7 100 1009
18 05:20 不定 1 10km以上 8 93 1009
18 04:50 北北東 2 10km以上 8 100 1009
LIRQ 200320Z 24001KT 9999 BKN035 BKN070 04/02 Q1013
LIRQ 200250Z VRB01KT 9999 BKN035 05/02 Q1013
LIRQ 200220Z VRB01KT 9999 BKN035 05/02 Q1013
LIRQ 200150Z VRB01KT 9999 BKN035 05/02 Q1013
LIRQ 200120Z 07003KT 9999 BKN040 04/02 Q1013
LIRQ 200050Z VRB01KT 9999 SCT040 04/02 Q1013
LIRQ 200020Z 03001KT 9999 BKN050 05/02 Q1013
LIRQ 192350Z VRB01KT 9999 BKN060 05/01 Q1013
LIRQ 192320Z 08003KT 9999 BKN070 05/01 Q1014
LIRQ 192250Z 06001KT 9999 FEW035 BKN060 04/02 Q1014
LIRQ 192220Z VRB01KT 9999 FEW035 SCT060 05/02 Q1014
LIRQ 192150Z VRB01KT 9999 SCT060 05/01 Q1014
LIRQ 192120Z 18001KT 9999 SCT070 05/01 Q1014
LIRQ 192050Z VRB01KT 9999 BKN060 05/01 Q1014
LIRQ 192020Z VRB02KT 9999 BKN060 06/01 Q1014
LIRQ 191950Z 21004KT 9999 BKN070 06/01 Q1013
LIRQ 191920Z 19003KT 9999 BKN070 06/01 Q1013
LIRQ 191850Z VRB02KT 9999 SCT080 07/01 Q1013
LIRQ 191820Z 270/02KT 9999 SCT080 07/01 Q1013
LIRQ 191750Z VRB02KT 9999 SCT080 07/01 Q1013
LIRQ 191720Z 27004KT 240V310 9999 SCT080 07/01 Q1013
LIRQ 191650Z 01005KT 340V040 9999 SCT080 08/01 Q1013
LIRQ 191620Z 02008KT 9999 SCT080 08/01 Q1013
LIRQ 191550Z 35004KT 9999 SCT080 08/01 Q1013
LIRQ 191520Z 30004KT 260V360 9999 FEW040 08/01 Q1013
LIRQ 191450Z VRB04KT 9999 FEW040 09/02 Q1013
LIRQ 191420Z 02009KT 9999 FEW040 09/02 Q1013
LIRQ 191350Z 02008KT 9999 FEW040 10/02 Q1013
LIRQ 191320Z 03006KT 350V050 9999 SCT040 11/02 Q1013
LIRQ 191250Z 04006KT 360V070 9999 FEW050 10/02 Q1013
LIRQ 191220Z VRB04KT CAVOK 11/01 Q1013
LIRQ 191150Z 03006KT 350V060 9999 FEW070 10/02 Q1014
LIRQ 191120Z 02006KT 330V060 9999 FEW060 10/02 Q1014
LIRQ 191050Z 02009KT 330V060 9999 FEW060 10/01 Q1014
LIRQ 191020Z 06007KT 030V100 9999 SCT060 10/02 Q1015
LIRQ 190950Z 10004KT 040V160 9999 SCT060 09/02 Q1015
LIRQ 190920Z 18004KT 110V230 9999 SCT060 08/03 Q1015
LIRQ 190850Z 18004KT 130V200 9999 SCT060 07/03 Q1014
LIRQ 190820Z 21004KT 190V260 9999 FEW040 SCT060 06/03 Q1014
LIRQ 190750Z 21004KT 9999 SCT040 06/03 Q1014
LIRQ 190720Z VRB03KT 9999 FEW040 05/03 Q1014
LIRQ 190650Z 21007KT 9999 FEW040 05/03 Q1014
LIRQ 190620Z 21004KT 180V240 9999 FEW040 05/03 Q1013
LIRQ 190550Z VRB02KT 9999 FEW040 05/03 Q1013
LIRQ 190520Z 15003KT 090V200 9999 FEW040 05/03 Q1013
LIRQ 190450Z 19005KT 100V220 9999 FEW040 05/03 Q1013
LIRQ 190420Z VRB03KT 9999 FEW040 06/04 Q1013
LIRQ 190350Z 23004KT 9999 SCT040 06/04 Q1013
LIRQ 190320Z 20003KT 9999 SCT040 06/04 Q1013
LIRQ 190250Z 19003KT 9999 SCT040 06/04 Q1014
LIRQ 190220Z VRB01KT 9999 SCT040 06/04 Q1014
LIRQ 190150Z 14004KT 040V210 9999 SCT040 07/04 Q1014
LIRQ 190120Z 23003KT 190V300 9999 SCT040 07/04 Q1014
LIRQ 190050Z 21002KT 9999 SCT040 06/04 Q1014
LIRQ 190020Z VRB01KT 9999 SCT035 05/03 Q1014
LIRQ 182350Z VRB01KT 9999 SCT040 06/04 Q1014
LIRQ 182320Z 13004KT 9999 FEW040 05/02 Q1014
LIRQ 182250Z 20003KT 160V220 9999 FEW040 06/04 Q1014
LIRQ 182220Z VRB02KT 9999 FEW035 07/04 Q1014
LIRQ 182150Z VRB01KT 9999 FEW035 07/04 Q1013
LIRQ 182120Z 20003KT 160V220 9999 SCT035 07/04 Q1013
LIRQ 182050Z VRB02KT CAVOK 07/04 Q1013
LIRQ 182020Z 18005KT CAVOK 07/04 Q1013
LIRQ 181950Z 24004KT 210V270 9999 SCT080 08/04 Q1013
LIRQ 181920Z VRB06KT 9999 SCT080 08/04 Q1013
LIRQ 181850Z 21003KT 160V240 9999 FEW080 08/04 Q1013
LIRQ 181820Z 17004KT 090V210 9999 FEW060 07/04 Q1012
LIRQ 181750Z VRB02KT 9999 FEW060 07/03 Q1012
LIRQ 181720Z VRB01KT CAVOK 09/03 Q1012
LIRQ 181650Z 02006KT 330V090 9999 FEW045 10/03 Q1011
LIRQ 181620Z 03004KT 350V070 9999 FEW040 09/04 Q1011
LIRQ 181550Z VRB02KT 9999 FEW040 11/03 Q1011
LIRQ 181520Z 16004KT 9999 SCT040 12/04 Q1011
LIRQ 181450Z VRB01KT 9999 SCT040 14/03 Q1011
LIRQ 181420Z 07004KT 9999 SCT040 13/03 Q1011
LIRQ 181350Z 11004KT 080V190 9999 SCT040 13/04 Q1010
LIRQ 181320Z VRB02KT 9999 BKN045 13/03 Q1010
LIRQ 181250Z VRB02KT 9999 BKN040 13/03 Q1010
LIRQ 181220Z 02003KT 340V080 9999 SCT035 13/04 Q1010
LIRQ 181150Z 34004KT 250V050 9999 SCT035 12/04 Q1011
LIRQ 181120Z VRB02KT 9999 SCT035 13/05 Q1011
LIRQ 181050Z VRB02KT 9999 SCT035 13/06 Q1011
LIRQ 181020Z 10003KT 050V140 9999 FEW035 12/07 Q1011
LIRQ 180950Z 12003KT 090V150 9999 FEW035 11/07 Q1011
LIRQ 180920Z 11006KT 9999 FEW035 10/07 Q1011
LIRQ 180850Z VRB02KT 9999 FEW035 10/08 Q1011
LIRQ 180820Z VRB02KT 9999 SCT035 08/07 Q1011
LIRQ 180750Z 10004KT 9999 SCT035 SCT070 08/07 Q1010
LIRQ 180720Z 09004KT 9999 BKN035 07/07 Q1010
LIRQ 180650Z VRB02KT 9999 BKN035 07/07 Q1010
LIRQ 180620Z 06003KT 030V120 9999 SCT035 08/07 Q1009 RERA
LIRQ 180550Z 17003KT 150V230 9000 RA FEW035 BKN050 08/08 Q1009
LIRQ 180520Z VRB02KT 9999 RA BKN060 08/07 Q1009
LIRQ 180450Z VRB01KT 9999 SCT060 07/07 Q1009
LIRQ 180420Z VRB01KT 9999 BKN050 08/07 Q1009
LIRQ 180350Z 02003KT 330V110 9999 BKN050 08/08 Q1009